Time;durP1;ratioP1;P1;durP2;ratioP2;P2;SDS_P1;SDS_P2;PMS_P1;PMS_P2;Temp;Humidity;BMP_temperature;BMP_pressure;BME280_temperature;BME280_humidity;BME280_pressure;Samples;Min_cycle;Max_cycle;Signal;HPM_P1;HPM_P2
2022/04/25 00:01:04;;;;;;;7.90;6.43;;;;;;;;;;4893282;29;20057;-75
2022/04/25 00:03:29;;;;;;;12.13;6.65;;;;;;;;;;4896865;29;20400;-75
2022/04/25 00:05:55;;;;;;;8.77;6.78;;;;;;;;;;4892730;29;20717;-75
2022/04/25 00:08:20;;;;;;;8.88;6.75;;;;;;;;;;4894675;29;20447;-74
2022/04/25 00:10:46;;;;;;;13.65;7.13;;;;;;;;;;4892001;29;20048;-75
2022/04/25 00:13:13;;;;;;;7.80;6.22;;;;;;;;;;4894274;29;20460;-74
2022/04/25 00:15:39;;;;;;;10.80;6.68;;;;;;;;;;4895556;29;20415;-74
2022/04/25 00:18:05;;;;;;;9.02;6.63;;;;;;;;;;4896338;29;20052;-76
2022/04/25 00:20:31;;;;;;;9.45;6.30;;;;;;;;;;4896613;29;20039;-73
2022/04/25 00:23:00;;;;;;;10.48;6.32;;;;;;;;;;4896774;29;20057;-73
2022/04/25 00:25:28;;;;;;;8.38;6.50;;;;;;;;;;4908876;29;20048;-77
2022/04/25 00:27:53;;;;;;;8.88;6.60;;;;;;;;;;4914733;29;20106;-73
2022/04/25 00:30:19;;;;;;;7.78;6.30;;;;;;;;;;4911719;29;20119;-73
2022/04/25 00:32:45;;;;;;;10.23;6.25;;;;;;;;;;4914307;28;20100;-75
2022/04/25 00:35:11;;;;;;;8.23;6.45;;;;;;;;;;4916636;29;20035;-76
2022/04/25 00:37:36;;;;;;;8.85;6.30;;;;;;;;;;4914392;28;20389;-75
2022/04/25 00:40:02;;;;;;;7.43;6.55;;;;;;;;;;4910870;28;20047;-76
2022/04/25 00:42:28;;;;;;;10.23;6.70;;;;;;;;;;4914655;29;20055;-76
2022/04/25 00:44:53;;;;;;;10.15;6.60;;;;;;;;;;4912456;29;20040;-76
2022/04/25 00:47:20;;;;;;;7.55;6.50;;;;;;;;;;4913109;29;20395;-75
2022/04/25 00:49:45;;;;;;;10.02;6.85;;;;;;;;;;4901796;29;20056;-74
2022/04/25 00:52:11;;;;;;;8.52;6.30;;;;;;;;;;4899402;29;20173;-73
2022/04/25 00:54:37;;;;;;;8.68;6.32;;;;;;;;;;4894602;29;20064;-74
2022/04/25 00:57:02;;;;;;;10.18;6.63;;;;;;;;;;4893399;29;20132;-76
2022/04/25 00:59:29;;;;;;;7.53;6.60;;;;;;;;;;4891101;29;20043;-75
2022/04/25 01:01:54;;;;;;;7.78;6.57;;;;;;;;;;4890883;29;20129;-74
2022/04/25 01:04:20;;;;;;;8.38;6.55;;;;;;;;;;4893303;29;20048;-76
2022/04/25 01:06:48;;;;;;;9.27;6.47;;;;;;;;;;4894747;29;20045;-76
2022/04/25 01:09:14;;;;;;;7.50;6.40;;;;;;;;;;4892963;29;20053;-76
2022/04/25 01:11:39;;;;;;;10.20;6.82;;;;;;;;;;4892547;29;20043;-77
2022/04/25 01:14:17;;;;;;;8.52;6.50;;;;;;;;;;4893048;29;20252;-74
2022/04/25 01:16:43;;;;;;;8.02;6.57;;;;;;;;;;4892777;29;20491;-77
2022/04/25 01:19:11;;;;;;;8.43;7.03;;;;;;;;;;4899069;29;20059;-74
2022/04/25 01:22:06;;;;;;;8.77;6.50;;;;;;;;;;4891684;29;20059;-73
2022/04/25 01:27:17;;;;;;;8.55;6.55;;;;;;;;;;4891359;29;20059;-74
2022/04/25 01:29:44;;;;;;;7.80;6.72;;;;;;;;;;4903929;29;20117;-74
2022/04/25 01:32:10;;;;;;;8.88;6.75;;;;;;;;;;4927776;29;20028;-74
2022/04/25 01:34:37;;;;;;;9.93;6.82;;;;;;;;;;4898029;29;20076;-74
2022/04/25 01:37:05;;;;;;;9.15;6.72;;;;;;;;;;4898718;29;20036;-76
2022/04/25 01:39:33;;;;;;;9.82;7.30;;;;;;;;;;4892875;29;20056;-76
2022/04/25 01:41:59;;;;;;;8.68;6.82;;;;;;;;;;4915545;29;20074;-75
2022/04/25 01:44:24;;;;;;;9.20;6.68;;;;;;;;;;4914655;28;20068;-77
2022/04/25 01:46:50;;;;;;;10.18;7.43;;;;;;;;;;4915549;29;20044;-76
2022/04/25 01:49:15;;;;;;;9.82;7.63;;;;;;;;;;4903819;29;20140;-75
2022/04/25 01:51:40;;;;;;;10.48;7.35;;;;;;;;;;4913095;29;20129;-76
2022/04/25 01:54:06;;;;;;;9.55;7.30;;;;;;;;;;4917911;29;20044;-76
2022/04/25 01:56:32;;;;;;;10.25;7.40;;;;;;;;;;4902729;29;20048;-75
2022/04/25 01:58:57;;;;;;;9.75;7.55;;;;;;;;;;4904749;29;20117;-73
2022/04/25 02:01:23;;;;;;;10.32;7.47;;;;;;;;;;4920848;29;20072;-75
2022/04/25 02:03:48;;;;;;;9.15;7.13;;;;;;;;;;4900971;29;20044;-76
2022/04/25 02:06:13;;;;;;;11.57;7.68;;;;;;;;;;4911109;29;20980;-76
2022/04/25 02:08:39;;;;;;;13.30;7.55;;;;;;;;;;4898827;29;20128;-75
2022/04/25 02:11:20;;;;;;;9.00;7.10;;;;;;;;;;4896669;29;20051;-76
2022/04/25 02:13:46;;;;;;;13.18;7.72;;;;;;;;;;4902438;29;20052;-74
2022/04/25 02:16:12;;;;;;;9.98;7.85;;;;;;;;;;4917822;29;20035;-74
2022/04/25 02:18:40;;;;;;;10.45;7.22;;;;;;;;;;4920107;29;20051;-75
2022/04/25 02:21:05;;;;;;;10.15;7.53;;;;;;;;;;4908973;29;20072;-74
2022/04/25 02:23:31;;;;;;;9.93;7.15;;;;;;;;;;4905749;29;20067;-76
2022/04/25 02:25:56;;;;;;;12.55;7.80;;;;;;;;;;4898369;29;20052;-76
2022/04/25 02:28:22;;;;;;;11.73;7.90;;;;;;;;;;4902706;29;20460;-74
2022/04/25 02:30:47;;;;;;;10.20;7.53;;;;;;;;;;4922158;29;20079;-75
2022/04/25 02:33:12;;;;;;;12.57;7.57;;;;;;;;;;4904816;29;20056;-74
2022/04/25 02:35:38;;;;;;;12.85;7.88;;;;;;;;;;4901992;29;20139;-75
2022/04/25 02:38:03;;;;;;;9.45;7.45;;;;;;;;;;4901528;29;20056;-76
2022/04/25 02:40:29;;;;;;;8.82;7.05;;;;;;;;;;4896361;29;20032;-76
2022/04/25 02:42:54;;;;;;;9.75;7.55;;;;;;;;;;4900605;29;20044;-78
2022/04/25 02:45:19;;;;;;;10.45;7.95;;;;;;;;;;4893077;29;20053;-78
2022/04/25 02:47:45;;;;;;;11.68;8.23;;;;;;;;;;4895787;29;20053;-77
2022/04/25 02:50:11;;;;;;;12.77;7.55;;;;;;;;;;4896192;29;20505;-79
2022/04/25 02:52:36;;;;;;;11.88;8.10;;;;;;;;;;4894898;29;20085;-78
2022/04/25 02:55:01;;;;;;;10.40;7.47;;;;;;;;;;4901896;29;20111;-76
2022/04/25 02:57:27;;;;;;;7.70;6.90;;;;;;;;;;4898572;29;20510;-77
2022/04/25 02:59:52;;;;;;;11.75;7.22;;;;;;;;;;4913923;29;20143;-77
2022/04/25 03:02:18;;;;;;;11.25;6.95;;;;;;;;;;4911787;29;20136;-77
2022/04/25 03:04:43;;;;;;;8.95;6.95;;;;;;;;;;4901759;29;20486;-77
2022/04/25 03:07:09;;;;;;;9.25;6.85;;;;;;;;;;4911912;29;20036;-77
2022/04/25 03:09:34;;;;;;;11.88;6.97;;;;;;;;;;4895300;29;20045;-76
2022/04/25 03:11:59;;;;;;;9.40;7.10;;;;;;;;;;4894628;29;20056;-78
2022/04/25 03:14:26;;;;;;;8.13;6.38;;;;;;;;;;4899965;29;20120;-77
2022/04/25 03:16:51;;;;;;;8.27;6.22;;;;;;;;;;4913275;29;20135;-79
2022/04/25 03:19:18;;;;;;;7.32;6.07;;;;;;;;;;4909083;29;20119;-78
2022/04/25 03:21:43;;;;;;;8.15;6.50;;;;;;;;;;4898154;29;20059;-78
2022/04/25 03:24:09;;;;;;;8.43;6.53;;;;;;;;;;4909983;29;20044;-79
2022/04/25 03:26:34;;;;;;;8.77;6.50;;;;;;;;;;4904247;29;20128;-76
2022/04/25 03:29:00;;;;;;;7.30;6.22;;;;;;;;;;4914151;29;20044;-76
2022/04/25 03:31:25;;;;;;;8.80;6.45;;;;;;;;;;4910058;29;20123;-76
2022/04/25 03:33:51;;;;;;;9.98;6.75;;;;;;;;;;4895865;29;20021;-75
2022/04/25 03:36:16;;;;;;;8.68;6.13;;;;;;;;;;4890955;29;20063;-75
2022/04/25 03:38:42;;;;;;;6.65;5.82;;;;;;;;;;4904964;29;20068;-79
2022/04/25 03:41:08;;;;;;;10.85;7.07;;;;;;;;;;4914410;29;20079;-76
2022/04/25 03:43:34;;;;;;;10.20;7.03;;;;;;;;;;4910973;29;20044;-79
2022/04/25 03:46:04;;;;;;;18.35;11.32;;;;;;;;;;4914064;29;20194;-77
2022/04/25 03:48:30;;;;;;;11.90;7.20;;;;;;;;;;4909189;29;20147;-78
2022/04/25 03:50:56;;;;;;;13.65;6.60;;;;;;;;;;4915892;29;20135;-75
2022/04/25 03:53:22;;;;;;;9.23;6.82;;;;;;;;;;4914120;29;20057;-80
2022/04/25 03:58:31;;;;;;;9.10;7.07;;;;;;;;;;4911150;29;20052;-79
2022/04/25 04:00:57;;;;;;;9.68;7.13;;;;;;;;;;4919137;29;20040;-78
2022/04/25 04:03:23;;;;;;;11.65;8.05;;;;;;;;;;4918332;29;20072;-78
2022/04/25 04:05:50;;;;;;;12.23;7.65;;;;;;;;;;4922698;29;20498;-76
2022/04/25 04:08:16;;;;;;;10.77;7.15;;;;;;;;;;4910356;29;20147;-78
2022/04/25 04:10:42;;;;;;;8.93;7.13;;;;;;;;;;4913880;29;20131;-78
2022/04/25 04:13:08;;;;;;;9.32;7.55;;;;;;;;;;4910653;29;20087;-78
2022/04/25 04:15:34;;;;;;;10.23;7.32;;;;;;;;;;4912180;29;20044;-74
2022/04/25 04:17:59;;;;;;;10.65;7.90;;;;;;;;;;4920444;29;20131;-78
2022/04/25 04:20:24;;;;;;;12.18;7.75;;;;;;;;;;4925626;29;21431;-78
2022/04/25 04:22:50;;;;;;;10.88;8.07;;;;;;;;;;4920821;29;20044;-75
2022/04/25 04:25:15;;;;;;;10.82;7.20;;;;;;;;;;4921260;29;20739;-71
2022/04/25 04:27:42;;;;;;;10.30;7.65;;;;;;;;;;4914668;29;20032;-78
2022/04/25 04:30:11;;;;;;;13.48;8.15;;;;;;;;;;4922427;29;20052;-77
2022/04/25 04:32:40;;;;;;;9.70;7.90;;;;;;;;;;4914252;29;20056;-78
2022/04/25 04:35:07;;;;;;;9.50;7.95;;;;;;;;;;4918305;29;20115;-75
2022/04/25 04:37:34;;;;;;;12.75;8.25;;;;;;;;;;4912357;29;20032;-76
2022/04/25 04:42:44;;;;;;;13.27;8.73;;;;;;;;;;4919156;29;20055;-74
2022/04/25 04:45:11;;;;;;;15.10;8.85;;;;;;;;;;4922445;29;20044;-75
2022/04/25 04:47:39;;;;;;;15.07;8.70;;;;;;;;;;4925111;29;20044;-77
2022/04/25 04:50:06;;;;;;;12.27;8.98;;;;;;;;;;4909812;29;20104;-76
2022/04/25 04:52:32;;;;;;;9.95;8.38;;;;;;;;;;4913648;29;20035;-77
2022/04/25 04:54:57;;;;;;;12.40;8.27;;;;;;;;;;4915165;29;20036;-78
2022/04/25 04:57:23;;;;;;;10.52;7.90;;;;;;;;;;4913314;29;20056;-79
2022/04/25 04:59:48;;;;;;;9.77;8.10;;;;;;;;;;4914529;29;20098;-74
2022/04/25 05:02:16;;;;;;;13.55;8.07;;;;;;;;;;4915215;29;20415;-78
2022/04/25 05:04:41;;;;;;;12.55;8.20;;;;;;;;;;4911747;29;20052;-77
2022/04/25 05:07:06;;;;;;;13.85;9.07;;;;;;;;;;4917026;29;20545;-76
2022/04/25 05:09:32;;;;;;;12.52;8.13;;;;;;;;;;4914034;29;20132;-76
2022/04/25 05:11:57;;;;;;;11.23;7.95;;;;;;;;;;4920189;29;20051;-78
2022/04/25 05:14:23;;;;;;;9.27;7.75;;;;;;;;;;4911596;29;20048;-62
2022/04/25 05:16:48;;;;;;;10.55;8.20;;;;;;;;;;4918593;29;20043;-60
2022/04/25 05:19:13;;;;;;;12.82;8.00;;;;;;;;;;4923906;29;20124;-61
2022/04/25 05:21:39;;;;;;;10.85;7.70;;;;;;;;;;4923428;29;20390;-62
2022/04/25 05:24:05;;;;;;;12.73;10.07;;;;;;;;;;4915315;29;20042;-60
2022/04/25 05:26:31;;;;;;;13.00;8.43;;;;;;;;;;4916021;29;20131;-59
2022/04/25 05:28:57;;;;;;;12.80;8.40;;;;;;;;;;4913844;29;20131;-60
2022/04/25 05:31:23;;;;;;;11.68;8.80;;;;;;;;;;4911802;29;20059;-60
2022/04/25 05:33:49;;;;;;;13.10;8.85;;;;;;;;;;4918081;29;20487;-59
2022/04/25 05:36:14;;;;;;;13.63;9.52;;;;;;;;;;4910931;29;20051;-61
2022/04/25 05:38:40;;;;;;;10.98;8.55;;;;;;;;;;4912648;29;20079;-61
2022/04/25 05:41:07;;;;;;;12.18;8.18;;;;;;;;;;4920912;29;20040;-60
2022/04/25 05:43:33;;;;;;;13.43;9.27;;;;;;;;;;4916535;29;20039;-61
2022/04/25 05:45:58;;;;;;;14.25;9.27;;;;;;;;;;4924771;29;20048;-61
2022/04/25 05:53:52;;;;;;;13.73;9.10;;;;;;;;;;4919640;29;20092;-61
2022/04/25 05:56:17;;;;;;;17.55;9.98;;;;;;;;;;4918542;29;20484;-61
2022/04/25 05:58:43;;;;;;;12.13;9.93;;;;;;;;;;4919781;29;20095;-60
2022/04/25 06:01:08;;;;;;;13.07;10.30;;;;;;;;;;4922309;29;20028;-60
2022/04/25 06:03:33;;;;;;;19.40;11.25;;;;;;;;;;4921323;29;20403;-61
2022/04/25 06:05:59;;;;;;;19.88;10.77;;;;;;;;;;4915605;29;20040;-61
2022/04/25 06:08:24;;;;;;;16.85;9.70;;;;;;;;;;4920807;29;20123;-61
2022/04/25 06:10:50;;;;;;;20.85;10.30;;;;;;;;;;4915530;29;20040;-61
2022/04/25 06:13:15;;;;;;;19.92;10.27;;;;;;;;;;4917371;29;20040;-60
2022/04/25 06:15:41;;;;;;;26.33;10.90;;;;;;;;;;4921075;29;20443;-60
2022/04/25 06:18:06;;;;;;;20.33;10.80;;;;;;;;;;4919999;29;20483;-60
2022/04/25 06:20:31;;;;;;;17.42;11.50;;;;;;;;;;4922319;29;20062;-60
2022/04/25 06:22:59;;;;;;;23.73;11.55;;;;;;;;;;4918487;29;20055;-60
2022/04/25 06:25:30;;;;;;;16.50;12.10;;;;;;;;;;4919274;29;20040;-60
2022/04/25 06:27:57;;;;;;;20.70;12.23;;;;;;;;;;4915243;29;20050;-60
2022/04/25 06:30:28;;;;;;;18.52;12.38;;;;;;;;;;4916557;29;20188;-62
2022/04/25 06:32:54;;;;;;;22.48;11.75;;;;;;;;;;4915282;29;20052;-60
2022/04/25 06:35:20;;;;;;;22.73;12.55;;;;;;;;;;4913634;29;20056;-60
2022/04/25 06:37:46;;;;;;;16.02;12.40;;;;;;;;;;4916753;29;20067;-58
2022/04/25 06:40:12;;;;;;;20.33;13.68;;;;;;;;;;4915554;29;20040;-59
2022/04/25 06:42:37;;;;;;;23.13;14.35;;;;;;;;;;4914531;29;20526;-59
2022/04/25 06:45:04;;;;;;;22.27;14.63;;;;;;;;;;4921720;29;20463;-59
2022/04/25 06:47:29;;;;;;;22.63;14.07;;;;;;;;;;4913556;29;20067;-61
2022/04/25 06:49:54;;;;;;;17.23;12.93;;;;;;;;;;4919458;29;20076;-59
2022/04/25 06:52:20;;;;;;;22.02;12.68;;;;;;;;;;4915025;29;20466;-61
2022/04/25 06:54:46;;;;;;;21.13;13.27;;;;;;;;;;4922013;29;20037;-60
2022/04/25 06:57:12;;;;;;;18.00;12.68;;;;;;;;;;4913870;29;20037;-61
2022/04/25 06:59:38;;;;;;;21.38;13.52;;;;;;;;;;4912078;29;20068;-62
2022/04/25 07:02:04;;;;;;;19.88;13.30;;;;;;;;;;4917301;29;20054;-60
2022/04/25 07:04:29;;;;;;;22.85;12.85;;;;;;;;;;4910329;29;20435;-59
2022/04/25 07:06:55;;;;;;;15.95;12.80;;;;;;;;;;4910421;29;20067;-61
2022/04/25 07:09:20;;;;;;;21.63;13.77;;;;;;;;;;4914043;29;20086;-61
2022/04/25 07:11:46;;;;;;;18.40;12.80;;;;;;;;;;4912166;29;20629;-61
2022/04/25 07:14:14;;;;;;;18.30;13.20;;;;;;;;;;4916846;29;20096;-61
2022/04/25 07:16:40;;;;;;;18.15;13.68;;;;;;;;;;4913872;29;20048;-61
2022/04/25 07:19:07;;;;;;;16.75;13.18;;;;;;;;;;4914769;29;20040;-60
2022/04/25 07:29:48;;;;;;;19.70;13.35;;;;;;;;;;4915218;29;20087;-62
2022/04/25 07:32:15;;;;;;;20.27;13.00;;;;;;;;;;4914745;29;20500;-59
2022/04/25 07:34:41;;;;;;;18.60;12.73;;;;;;;;;;4911520;29;20478;-59
2022/04/25 07:37:07;;;;;;;18.85;12.88;;;;;;;;;;4909294;29;20077;-62
2022/04/25 07:39:32;;;;;;;16.80;12.50;;;;;;;;;;4909028;29;20531;-61
2022/04/25 07:41:58;;;;;;;19.50;13.32;;;;;;;;;;4909949;29;20048;-59
2022/04/25 07:44:24;;;;;;;18.70;13.23;;;;;;;;;;4910566;29;20076;-61
2022/04/25 07:46:50;;;;;;;18.33;13.40;;;;;;;;;;4915251;29;20123;-60
2022/04/25 07:49:16;;;;;;;18.08;12.65;;;;;;;;;;4922670;29;20178;-60
2022/04/25 07:51:41;;;;;;;16.17;12.27;;;;;;;;;;4915009;29;20465;-60
2022/04/25 07:54:08;;;;;;;20.35;12.85;;;;;;;;;;4913606;29;20060;-60
2022/04/25 07:56:34;;;;;;;18.88;11.80;;;;;;;;;;4914737;29;20048;-61
2022/04/25 07:59:01;;;;;;;15.55;12.05;;;;;;;;;;4912973;29;20411;-61
2022/04/25 08:01:29;;;;;;;15.63;11.98;;;;;;;;;;4911884;29;20043;-60
2022/04/25 08:03:56;;;;;;;18.00;12.52;;;;;;;;;;4914771;29;20067;-59
2022/04/25 08:06:22;;;;;;;14.00;11.40;;;;;;;;;;4905285;29;20173;-60
2022/04/25 08:08:52;;;;;;;15.05;11.20;;;;;;;;;;4908693;29;20040;-61
2022/04/25 08:11:18;;;;;;;25.13;12.68;;;;;;;;;;4905057;29;20052;-61
2022/04/25 08:19:15;;;;;;;15.82;11.18;;;;;;;;;;4916198;29;20046;-60
2022/04/25 08:21:41;;;;;;;14.93;11.95;;;;;;;;;;4910104;29;20072;-61
2022/04/25 08:24:07;;;;;;;25.75;13.63;;;;;;;;;;4901655;29;20056;-60
2022/04/25 08:26:32;;;;;;;18.92;12.65;;;;;;;;;;4893307;29;20049;-61
2022/04/25 08:28:59;;;;;;;14.75;12.32;;;;;;;;;;4897805;29;20138;-65
2022/04/25 08:31:25;;;;;;;17.52;12.20;;;;;;;;;;4913443;29;20036;-60
2022/04/25 08:33:52;;;;;;;16.30;11.43;;;;;;;;;;4898250;29;20055;-61
2022/04/25 08:36:18;;;;;;;17.95;10.20;;;;;;;;;;4916126;29;20040;-60
2022/04/25 08:38:45;;;;;;;14.80;10.45;;;;;;;;;;4919192;29;20441;-61
2022/04/25 08:41:12;;;;;;;13.27;10.32;;;;;;;;;;4908914;29;20044;-61
2022/04/25 08:43:39;;;;;;;13.32;10.30;;;;;;;;;;4911496;29;20063;-62
2022/04/25 08:46:07;;;;;;;14.70;10.07;;;;;;;;;;4899454;29;20028;-61
2022/04/25 08:48:34;;;;;;;13.38;10.18;;;;;;;;;;4894349;29;20055;-64
2022/04/25 08:51:00;;;;;;;15.77;10.60;;;;;;;;;;4911790;29;20063;-61
2022/04/25 08:53:27;;;;;;;20.52;11.13;;;;;;;;;;4907809;29;20204;-60
2022/04/25 08:55:54;;;;;;;15.05;9.95;;;;;;;;;;4899939;29;20096;-66
2022/04/25 08:58:24;;;;;;;12.10;9.85;;;;;;;;;;4900904;29;20029;-62
2022/04/25 09:00:50;;;;;;;14.18;9.30;;;;;;;;;;4900969;29;20081;-60
2022/04/25 09:03:15;;;;;;;15.98;9.32;;;;;;;;;;4892729;29;20511;-62
2022/04/25 09:05:41;;;;;;;10.73;8.88;;;;;;;;;;4905974;29;20091;-64
2022/04/25 09:08:07;;;;;;;11.43;9.18;;;;;;;;;;4915360;29;20098;-61
2022/04/25 09:10:34;;;;;;;11.35;8.77;;;;;;;;;;4912572;29;20043;-61
2022/04/25 09:13:01;;;;;;;13.45;8.32;;;;;;;;;;4892477;29;20038;-61
2022/04/25 09:15:27;;;;;;;11.02;8.00;;;;;;;;;;4897532;29;20052;-61
2022/04/25 09:17:57;;;;;;;12.68;8.20;;;;;;;;;;4894989;29;20101;-61
2022/04/25 09:20:23;;;;;;;9.85;7.25;;;;;;;;;;4897205;29;20123;-59
2022/04/25 09:22:48;;;;;;;10.88;7.35;;;;;;;;;;4895827;29;20073;-61
2022/04/25 09:25:16;;;;;;;12.85;7.35;;;;;;;;;;4895791;29;20036;-61
2022/04/25 09:27:43;;;;;;;10.18;7.95;;;;;;;;;;4892989;29;20098;-64
2022/04/25 09:30:21;;;;;;;9.43;7.40;;;;;;;;;;4894223;29;20060;-60
2022/04/25 09:32:51;;;;;;;10.50;6.78;;;;;;;;;;4894694;29;20053;-62
2022/04/25 09:35:33;;;;;;;8.75;6.90;;;;;;;;;;4895025;29;20095;-61
2022/04/25 09:38:08;;;;;;;9.63;6.53;;;;;;;;;;4896927;29;20060;-61
2022/04/25 09:40:35;;;;;;;7.68;6.63;;;;;;;;;;4915279;29;20048;-60
2022/04/25 09:43:12;;;;;;;8.00;6.35;;;;;;;;;;4914000;29;20043;-61
2022/04/25 09:45:42;;;;;;;10.43;6.47;;;;;;;;;;4891823;29;20510;-61
2022/04/25 09:48:15;;;;;;;9.52;6.80;;;;;;;;;;4893868;29;20048;-60
2022/04/25 09:50:43;;;;;;;16.35;6.75;;;;;;;;;;4906191;28;20040;-61
2022/04/25 09:53:10;;;;;;;9.75;6.88;;;;;;;;;;4901255;29;20056;-62
2022/04/25 09:55:38;;;;;;;8.15;6.25;;;;;;;;;;4899558;29;20547;-60
2022/04/25 09:58:23;;;;;;;7.55;6.15;;;;;;;;;;4908098;29;20449;-60
2022/04/25 10:00:53;;;;;;;8.70;6.10;;;;;;;;;;4913725;29;20115;-60
2022/04/25 10:03:32;;;;;;;11.18;5.75;;;;;;;;;;4890872;29;20108;-58
2022/04/25 10:06:03;;;;;;;10.65;6.07;;;;;;;;;;4893406;29;20050;-61
2022/04/25 10:08:31;;;;;;;10.15;6.38;;;;;;;;;;4886897;29;20052;-60
2022/04/25 10:11:00;;;;;;;8.23;5.88;;;;;;;;;;4895750;29;20071;-61
2022/04/25 10:13:27;;;;;;;7.55;6.05;;;;;;;;;;4894456;29;20041;-60
2022/04/25 10:15:53;;;;;;;6.82;5.72;;;;;;;;;;4891411;29;20025;-60
2022/04/25 10:18:18;;;;;;;6.82;5.63;;;;;;;;;;4893655;29;20101;-60
2022/04/25 10:20:46;;;;;;;6.20;5.03;;;;;;;;;;4888937;29;20493;-61
2022/04/25 10:23:13;;;;;;;6.75;5.40;;;;;;;;;;4892862;29;20507;-60
2022/04/25 10:25:40;;;;;;;10.57;5.55;;;;;;;;;;4893482;29;20248;-60
2022/04/25 10:28:13;;;;;;;8.05;5.80;;;;;;;;;;4897752;29;20033;-61
2022/04/25 10:30:44;;;;;;;5.80;5.10;;;;;;;;;;4893943;29;20048;-60
2022/04/25 10:33:16;;;;;;;7.75;5.30;;;;;;;;;;4892532;29;20101;-60
2022/04/25 10:35:42;;;;;;;8.45;5.60;;;;;;;;;;4891756;29;20140;-62
2022/04/25 10:38:47;;;;;;;9.68;5.80;;;;;;;;;;4896876;29;20160;-60
2022/04/25 10:44:16;;;;;;;8.63;5.55;;;;;;;;;;4896520;29;20144;-60
2022/04/25 10:47:04;;;;;;;6.93;5.85;;;;;;;;;;4897152;29;20076;-61
2022/04/25 10:49:35;;;;;;;10.77;5.90;;;;;;;;;;4898678;29;20048;-60
2022/04/25 10:52:02;;;;;;;7.38;5.45;;;;;;;;;;4895294;29;20036;-60
2022/04/25 10:54:28;;;;;;;7.78;5.68;;;;;;;;;;4916418;29;20130;-60
2022/04/25 10:57:13;;;;;;;8.40;5.82;;;;;;;;;;4902475;29;20051;-60
2022/04/25 10:59:39;;;;;;;11.18;5.57;;;;;;;;;;4901076;29;20156;-60
2022/04/25 11:02:21;;;;;;;7.38;5.75;;;;;;;;;;4902519;29;20131;-60
2022/04/25 11:04:47;;;;;;;6.72;5.15;;;;;;;;;;4893984;29;20048;-60
2022/04/25 11:07:24;;;;;;;8.15;5.63;;;;;;;;;;4893861;29;20120;-60
2022/04/25 11:09:50;;;;;;;8.02;4.97;;;;;;;;;;4911887;29;20071;-60
2022/04/25 11:12:16;;;;;;;5.93;5.18;;;;;;;;;;4914690;29;20139;-61
2022/04/25 11:15:01;;;;;;;6.30;5.03;;;;;;;;;;4912976;29;20076;-60
2022/04/25 11:17:26;;;;;;;8.73;5.38;;;;;;;;;;4911881;29;20139;-60
2022/04/25 11:19:54;;;;;;;8.02;5.85;;;;;;;;;;4914298;29;20128;-60
2022/04/25 11:22:40;;;;;;;7.10;5.90;;;;;;;;;;4910916;29;20043;-59
2022/04/25 11:25:36;;;;;;;9.57;6.25;;;;;;;;;;4913688;29;20067;-61
2022/04/25 11:28:11;;;;;;;7.25;5.90;;;;;;;;;;4906651;29;20511;-60
2022/04/25 11:30:38;;;;;;;7.95;6.55;;;;;;;;;;4914572;29;20048;-59
2022/04/25 11:33:09;;;;;;;7.60;6.20;;;;;;;;;;4914202;29;20055;-57
2022/04/25 11:35:35;;;;;;;10.25;6.60;;;;;;;;;;4908773;29;20047;-61
2022/04/25 11:38:01;;;;;;;11.32;6.30;;;;;;;;;;4914718;29;20418;-59
2022/04/25 11:40:27;;;;;;;9.00;6.68;;;;;;;;;;4910117;29;20035;-57
2022/04/25 11:42:53;;;;;;;8.32;5.97;;;;;;;;;;4915435;29;20036;-60
2022/04/25 11:45:19;;;;;;;6.90;5.50;;;;;;;;;;4910165;29;20062;-59
2022/04/25 11:47:45;;;;;;;8.27;5.57;;;;;;;;;;4909702;29;20393;-60
2022/04/25 11:50:11;;;;;;;8.57;5.82;;;;;;;;;;4911182;29;20076;-57
2022/04/25 11:52:48;;;;;;;7.07;5.32;;;;;;;;;;4911806;29;20041;-59
2022/04/25 11:55:16;;;;;;;7.75;5.05;;;;;;;;;;4911569;29;20056;-59
2022/04/25 11:57:43;;;;;;;7.72;5.78;;;;;;;;;;4911610;29;20052;-60
2022/04/25 12:00:14;;;;;;;10.23;5.60;;;;;;;;;;4914506;29;20119;-59
2022/04/25 12:02:41;;;;;;;6.63;5.90;;;;;;;;;;4910606;29;20395;-60
2022/04/25 12:05:07;;;;;;;7.03;6.15;;;;;;;;;;4911527;29;20376;-60
2022/04/25 12:07:35;;;;;;;7.03;5.78;;;;;;;;;;4910898;29;20460;-59
2022/04/25 12:15:37;;;;;;;8.95;5.65;;;;;;;;;;4876593;28;20054;-60
2022/04/25 12:18:16;;;;;;;6.50;5.05;;;;;;;;;;4877810;28;20164;-61
2022/04/25 12:20:44;;;;;;;6.65;5.00;;;;;;;;;;4874939;29;20672;-60
2022/04/25 12:23:11;;;;;;;5.55;4.97;;;;;;;;;;4875844;29;20147;-58
2022/04/25 12:25:41;;;;;;;7.30;4.60;;;;;;;;;;4876416;29;20914;-60
2022/04/25 12:28:22;;;;;;;9.95;4.32;;;;;;;;;;4879280;29;20096;-58
2022/04/25 12:30:51;;;;;;;7.85;5.13;;;;;;;;;;4882587;29;20068;-59
2022/04/25 12:33:19;;;;;;;6.68;5.13;;;;;;;;;;4911867;29;20048;-59
2022/04/25 12:35:46;;;;;;;9.05;4.13;;;;;;;;;;4915996;29;20043;-59
2022/04/25 12:38:32;;;;;;;6.88;4.80;;;;;;;;;;4911159;29;20051;-59
2022/04/25 12:40:58;;;;;;;8.07;4.70;;;;;;;;;;4914992;29;20048;-59
2022/04/25 12:43:35;;;;;;;6.63;4.90;;;;;;;;;;4911908;29;20123;-59
2022/04/25 12:46:01;;;;;;;6.93;4.93;;;;;;;;;;4913221;29;20028;-60
2022/04/25 12:48:27;;;;;;;5.95;5.35;;;;;;;;;;4895415;29;20066;-58
2022/04/25 12:50:52;;;;;;;6.47;4.93;;;;;;;;;;4892442;29;20506;-60
2022/04/25 12:53:38;;;;;;;8.73;5.20;;;;;;;;;;4895119;29;20522;-58
2022/04/25 12:56:03;;;;;;;12.60;5.35;;;;;;;;;;4895924;29;20052;-58
2022/04/25 12:58:33;;;;;;;6.50;5.72;;;;;;;;;;4891560;29;20040;-58
2022/04/25 13:00:59;;;;;;;8.23;5.07;;;;;;;;;;4894121;29;20400;-60
2022/04/25 13:03:25;;;;;;;7.68;5.13;;;;;;;;;;4888904;29;20044;-59
2022/04/25 13:05:51;;;;;;;6.68;5.25;;;;;;;;;;4893710;29;20056;-60
2022/04/25 13:08:16;;;;;;;7.32;5.28;;;;;;;;;;4900938;29;20044;-60
2022/04/25 13:10:43;;;;;;;10.65;5.18;;;;;;;;;;4913077;29;20040;-58
2022/04/25 13:13:09;;;;;;;10.07;5.38;;;;;;;;;;4908432;29;20032;-59
2022/04/25 13:15:35;;;;;;;8.05;5.13;;;;;;;;;;4896721;29;20373;-59
2022/04/25 13:18:01;;;;;;;6.03;4.90;;;;;;;;;;4889393;29;20041;-59
2022/04/25 13:20:31;;;;;;;9.63;5.78;;;;;;;;;;4888570;29;20056;-59
2022/04/25 13:22:59;;;;;;;7.75;5.97;;;;;;;;;;4894594;29;20057;-58
2022/04/25 13:25:25;;;;;;;9.55;5.00;;;;;;;;;;4892772;29;20184;-59
2022/04/25 13:27:52;;;;;;;7.10;5.07;;;;;;;;;;4891100;29;20111;-58
2022/04/25 13:30:18;;;;;;;6.63;4.65;;;;;;;;;;4890877;29;20053;-59
2022/04/25 13:32:44;;;;;;;5.88;4.60;;;;;;;;;;4891033;29;20075;-58
2022/04/25 13:35:11;;;;;;;6.07;4.40;;;;;;;;;;4892688;29;20108;-57
2022/04/25 13:37:37;;;;;;;8.13;4.70;;;;;;;;;;4891676;29;20507;-60
2022/04/25 13:40:03;;;;;;;8.65;4.40;;;;;;;;;;4890542;29;20120;-59
2022/04/25 13:42:28;;;;;;;5.13;4.15;;;;;;;;;;4889504;29;20053;-58
2022/04/25 13:44:54;;;;;;;6.50;4.72;;;;;;;;;;4897050;29;20126;-59
2022/04/25 13:47:20;;;;;;;7.13;4.82;;;;;;;;;;4892961;29;20053;-58
2022/04/25 13:49:46;;;;;;;7.75;4.63;;;;;;;;;;4890143;29;20068;-58
2022/04/25 13:52:11;;;;;;;8.02;4.40;;;;;;;;;;4890960;29;20364;-59
2022/04/25 13:54:40;;;;;;;9.00;4.90;;;;;;;;;;4890642;29;20049;-60
2022/04/25 13:57:05;;;;;;;6.00;4.68;;;;;;;;;;4891035;29;20135;-60
2022/04/25 13:59:30;;;;;;;5.97;4.85;;;;;;;;;;4904786;29;20135;-59
2022/04/25 14:01:56;;;;;;;8.07;4.90;;;;;;;;;;4911704;29;20124;-60
2022/04/25 14:04:21;;;;;;;5.47;4.43;;;;;;;;;;4912151;29;20071;-59
2022/04/25 14:06:47;;;;;;;7.05;4.63;;;;;;;;;;4908858;29;20119;-61
2022/04/25 14:09:13;;;;;;;7.90;4.75;;;;;;;;;;4913455;29;20152;-60
2022/04/25 14:11:39;;;;;;;7.32;4.80;;;;;;;;;;4909831;29;20044;-59
2022/04/25 14:14:05;;;;;;;5.82;4.60;;;;;;;;;;4914388;29;20074;-59
2022/04/25 14:16:31;;;;;;;8.23;5.00;;;;;;;;;;4912635;29;20468;-60
2022/04/25 14:18:58;;;;;;;10.65;4.63;;;;;;;;;;4912874;29;20486;-59
2022/04/25 14:21:23;;;;;;;7.32;5.13;;;;;;;;;;4916126;29;20559;-60
2022/04/25 14:23:49;;;;;;;5.30;4.72;;;;;;;;;;4906503;29;20052;-59
2022/04/25 14:26:16;;;;;;;4.88;4.25;;;;;;;;;;4901875;29;20049;-58
2022/04/25 14:28:42;;;;;;;7.63;4.70;;;;;;;;;;4914739;29;20044;-59
2022/04/25 14:31:07;;;;;;;5.20;4.25;;;;;;;;;;4914473;29;20024;-58
2022/04/25 14:33:32;;;;;;;6.35;5.00;;;;;;;;;;4914540;29;20053;-59
2022/04/25 14:35:58;;;;;;;8.05;4.85;;;;;;;;;;4902622;29;20072;-60
2022/04/25 14:38:24;;;;;;;5.70;4.20;;;;;;;;;;4896247;29;20128;-59
2022/04/25 14:40:56;;;;;;;5.80;4.28;;;;;;;;;;4895124;29;20053;-59
2022/04/25 14:43:22;;;;;;;6.45;4.88;;;;;;;;;;4896067;29;20039;-57
2022/04/25 14:45:48;;;;;;;8.73;4.90;;;;;;;;;;4898339;29;20115;-59
2022/04/25 14:48:15;;;;;;;7.63;4.43;;;;;;;;;;4893492;29;20135;-59
2022/04/25 14:56:08;;;;;;;4.18;3.78;;;;;;;;;;4910737;29;20135;-58
2022/04/25 14:58:33;;;;;;;4.60;3.72;;;;;;;;;;4914610;29;20115;-60
2022/04/25 15:01:00;;;;;;;5.20;3.70;;;;;;;;;;4914194;29;20078;-57
2022/04/25 15:03:26;;;;;;;9.30;4.22;;;;;;;;;;4898375;29;20476;-59
2022/04/25 15:05:51;;;;;;;4.53;3.88;;;;;;;;;;4908324;29;20079;-59
2022/04/25 15:08:16;;;;;;;5.85;3.17;;;;;;;;;;4911123;29;20040;-58
2022/04/25 15:10:42;;;;;;;9.45;3.60;;;;;;;;;;4907281;29;20055;-58
2022/04/25 15:13:09;;;;;;;5.43;3.80;;;;;;;;;;4915037;29;20131;-59
2022/04/25 15:15:39;;;;;;;9.05;3.97;;;;;;;;;;4917629;29;20703;-58